sensor_id;sensor_type;location;lat;lon;timestamp;pressure;altitude;pressure_sealevel;temperature;humidity
77227;BME280;66234;47.642;19.144;2023-07-02T00:02:16;99298.66;;;20.62;78.13
77227;BME280;66234;47.642;19.144;2023-07-02T00:05:21;99293.81;;;20.59;78.37
77227;BME280;66234;47.642;19.144;2023-07-02T00:08:24;99298.94;;;20.60;78.46
77227;BME280;66234;47.642;19.144;2023-07-02T00:11:26;99302.53;;;20.56;78.60
77227;BME280;66234;47.642;19.144;2023-07-02T00:14:28;99297.19;;;20.51;78.74
77227;BME280;66234;47.642;19.144;2023-07-02T00:17:31;99302.09;;;20.49;78.95
77227;BME280;66234;47.642;19.144;2023-07-02T00:20:34;99293.34;;;20.52;78.56
77227;BME280;66234;47.642;19.144;2023-07-02T00:23:40;99299.53;;;20.57;78.64
77227;BME280;66234;47.642;19.144;2023-07-02T00:26:42;99297.19;;;20.51;78.99
77227;BME280;66234;47.642;19.144;2023-07-02T00:29:47;99292.53;;;20.51;79.07
77227;BME280;66234;47.642;19.144;2023-07-02T00:32:49;99298.25;;;20.50;78.95
77227;BME280;66234;47.642;19.144;2023-07-02T00:35:52;99303.50;;;20.46;79.27
77227;BME280;66234;47.642;19.144;2023-07-02T00:38:54;99300.19;;;20.49;79.44
77227;BME280;66234;47.642;19.144;2023-07-02T00:42:03;99291.88;;;20.41;79.57
77227;BME280;66234;47.642;19.144;2023-07-02T00:45:07;99295.19;;;20.38;79.45
77227;BME280;66234;47.642;19.144;2023-07-02T00:48:10;99295.25;;;20.33;79.59
77227;BME280;66234;47.642;19.144;2023-07-02T00:51:17;99296.53;;;20.40;79.63
77227;BME280;66234;47.642;19.144;2023-07-02T00:54:20;99286.81;;;20.53;79.27
77227;BME280;66234;47.642;19.144;2023-07-02T00:57:22;99296.00;;;20.57;78.92
77227;BME280;66234;47.642;19.144;2023-07-02T01:00:25;99289.69;;;20.61;78.81
77227;BME280;66234;47.642;19.144;2023-07-02T01:03:27;99296.06;;;20.70;78.65
77227;BME280;66234;47.642;19.144;2023-07-02T01:06:34;99297.00;;;20.61;78.28
77227;BME280;66234;47.642;19.144;2023-07-02T01:09:37;99298.94;;;20.60;78.57
77227;BME280;66234;47.642;19.144;2023-07-02T01:12:40;99294.88;;;20.58;78.67
77227;BME280;66234;47.642;19.144;2023-07-02T01:15:44;99300.84;;;20.60;78.53
77227;BME280;66234;47.642;19.144;2023-07-02T01:18:48;99296.28;;;20.55;78.72
77227;BME280;66234;47.642;19.144;2023-07-02T01:21:53;99298.56;;;20.48;78.50
77227;BME280;66234;47.642;19.144;2023-07-02T01:24:55;99294.53;;;20.46;79.04
77227;BME280;66234;47.642;19.144;2023-07-02T01:27:58;99307.22;;;20.50;78.63
77227;BME280;66234;47.642;19.144;2023-07-02T01:31:01;99298.25;;;20.50;77.93
77227;BME280;66234;47.642;19.144;2023-07-02T01:34:05;99292.03;;;20.49;77.48
77227;BME280;66234;47.642;19.144;2023-07-02T01:37:10;99297.13;;;20.56;77.15
77227;BME280;66234;47.642;19.144;2023-07-02T01:40:13;99296.00;;;20.57;76.92
77227;BME280;66234;47.642;19.144;2023-07-02T01:43:17;99299.91;;;20.51;77.19
77227;BME280;66234;47.642;19.144;2023-07-02T01:46:20;99301.78;;;20.50;75.58
77227;BME280;66234;47.642;19.144;2023-07-02T01:49:23;99309.00;;;20.60;74.40
77227;BME280;66234;47.642;19.144;2023-07-02T01:52:26;99310.22;;;20.67;73.84
77227;BME280;66234;47.642;19.144;2023-07-02T01:55:30;99307.88;;;20.61;73.38
77227;BME280;66234;47.642;19.144;2023-07-02T01:58:32;99308.31;;;20.68;72.33
77227;BME280;66234;47.642;19.144;2023-07-02T02:01:35;99300.28;;;20.76;71.90
77227;BME280;66234;47.642;19.144;2023-07-02T02:04:39;99304.66;;;20.77;71.50
77227;BME280;66234;47.642;19.144;2023-07-02T02:07:42;99311.31;;;20.85;70.99
77227;BME280;66234;47.642;19.144;2023-07-02T02:10:44;99311.63;;;20.83;70.54
77227;BME280;66234;47.642;19.144;2023-07-02T02:13:47;99309.19;;;20.82;70.87
77227;BME280;66234;47.642;19.144;2023-07-02T02:16:51;99305.66;;;20.81;70.28
77227;BME280;66234;47.642;19.144;2023-07-02T02:19:53;99301.38;;;20.94;70.07
77227;BME280;66234;47.642;19.144;2023-07-02T02:22:56;99301.75;;;20.87;70.49
77227;BME280;66234;47.642;19.144;2023-07-02T02:25:59;99299.09;;;20.82;70.64
77227;BME280;66234;47.642;19.144;2023-07-02T02:29:02;99298.16;;;20.73;71.10
77227;BME280;66234;47.642;19.144;2023-07-02T02:32:05;99300.38;;;20.71;70.54
77227;BME280;66234;47.642;19.144;2023-07-02T02:35:08;99293.78;;;20.77;69.99
77227;BME280;66234;47.642;19.144;2023-07-02T02:38:12;99298.50;;;20.85;70.05
77227;BME280;66234;47.642;19.144;2023-07-02T02:41:17;99302.72;;;20.78;70.11
77227;BME280;66234;47.642;19.144;2023-07-02T02:44:25;99291.97;;;20.73;70.26
77227;BME280;66234;47.642;19.144;2023-07-02T02:47:27;99291.56;;;20.79;70.30
77227;BME280;66234;47.642;19.144;2023-07-02T02:50:31;99289.44;;;20.76;70.06
77227;BME280;66234;47.642;19.144;2023-07-02T02:53:33;99290.66;;;20.84;70.45
77227;BME280;66234;47.642;19.144;2023-07-02T02:56:36;99290.66;;;20.84;71.25
77227;BME280;66234;47.642;19.144;2023-07-02T02:59:39;99279.59;;;20.80;72.14
77227;BME280;66234;47.642;19.144;2023-07-02T03:02:41;99290.25;;;20.77;72.56
77227;BME280;66234;47.642;19.144;2023-07-02T03:05:44;99285.09;;;20.75;72.95
77227;BME280;66234;47.642;19.144;2023-07-02T03:08:49;99293.41;;;20.65;73.59
77227;BME280;66234;47.642;19.144;2023-07-02T03:11:51;99291.81;;;20.64;74.10
77227;BME280;66234;47.642;19.144;2023-07-02T03:14:54;99292.91;;;20.63;75.41
77227;BME280;66234;47.642;19.144;2023-07-02T03:17:58;99294.69;;;20.54;76.52
77227;BME280;66234;47.642;19.144;2023-07-02T03:21:00;99285.78;;;20.49;77.72
77227;BME280;66234;47.642;19.144;2023-07-02T03:24:03;99291.97;;;20.54;77.85
77227;BME280;66234;47.642;19.144;2023-07-02T03:27:06;99289.34;;;20.49;78.12
77227;BME280;66234;47.642;19.144;2023-07-02T03:30:09;99294.16;;;20.52;77.96
77227;BME280;66234;47.642;19.144;2023-07-02T03:33:11;99287.97;;;20.65;77.56
77227;BME280;66234;47.642;19.144;2023-07-02T03:36:14;99299.13;;;20.64;77.53
77227;BME280;66234;47.642;19.144;2023-07-02T03:39:16;99295.94;;;20.62;77.56
77227;BME280;66234;47.642;19.144;2023-07-02T03:42:19;99299.81;;;20.74;76.42
77227;BME280;66234;47.642;19.144;2023-07-02T03:45:22;99304.84;;;20.81;76.90
77227;BME280;66234;47.642;19.144;2023-07-02T03:48:24;99307.84;;;20.98;75.89
77227;BME280;66234;47.642;19.144;2023-07-02T03:51:27;99307.38;;;20.96;75.07
77227;BME280;66234;47.642;19.144;2023-07-02T03:54:29;99313.13;;;20.89;75.67
77227;BME280;66234;47.642;19.144;2023-07-02T03:57:32;99315.56;;;20.91;75.70
77227;BME280;66234;47.642;19.144;2023-07-02T04:00:34;99313.00;;;20.99;75.41
77227;BME280;66234;47.642;19.144;2023-07-02T04:03:37;99316.44;;;21.05;74.65
77227;BME280;66234;47.642;19.144;2023-07-02T04:06:40;99311.41;;;21.12;74.50
77227;BME280;66234;47.642;19.144;2023-07-02T04:09:44;99324.94;;;21.17;72.13
77227;BME280;66234;47.642;19.144;2023-07-02T04:12:46;99327.97;;;21.29;73.34
77227;BME280;66234;47.642;19.144;2023-07-02T04:15:49;99318.91;;;21.34;69.04
77227;BME280;66234;47.642;19.144;2023-07-02T04:18:52;99322.66;;;21.38;67.06
77227;BME280;66234;47.642;19.144;2023-07-02T04:21:55;99310.88;;;21.42;66.53
77227;BME280;66234;47.642;19.144;2023-07-02T04:24:57;99322.47;;;21.48;64.65
77227;BME280;66234;47.642;19.144;2023-07-02T04:28:12;99327.00;;;21.52;64.49
77227;BME280;66234;47.642;19.144;2023-07-02T04:31:15;99327.03;;;21.66;64.05
77227;BME280;66234;47.642;19.144;2023-07-02T04:34:18;99321.69;;;21.74;63.44
77227;BME280;66234;47.642;19.144;2023-07-02T04:37:24;99333.94;;;21.90;63.27
77227;BME280;66234;47.642;19.144;2023-07-02T04:40:26;99329.28;;;21.91;63.11
77227;BME280;66234;47.642;19.144;2023-07-02T04:43:29;99326.66;;;21.99;62.90
77227;BME280;66234;47.642;19.144;2023-07-02T04:46:32;99337.31;;;22.36;62.26
77227;BME280;66234;47.642;19.144;2023-07-02T04:49:34;99344.16;;;22.34;61.05
77227;BME280;66234;47.642;19.144;2023-07-02T04:52:38;99345.88;;;22.30;61.93
77227;BME280;66234;47.642;19.144;2023-07-02T04:55:41;99347.25;;;22.54;61.53
77227;BME280;66234;47.642;19.144;2023-07-02T04:58:43;99343.09;;;22.93;60.53
77227;BME280;66234;47.642;19.144;2023-07-02T05:01:46;99352.19;;;22.88;59.86
77227;BME280;66234;47.642;19.144;2023-07-02T05:04:49;99351.53;;;22.83;60.29
77227;BME280;66234;47.642;19.144;2023-07-02T05:07:51;99355.13;;;22.92;59.83
77227;BME280;66234;47.642;19.144;2023-07-02T05:10:54;99355.81;;;22.97;59.84
77227;BME280;66234;47.642;19.144;2023-07-02T05:13:56;99366.22;;;22.95;60.02
77227;BME280;66234;47.642;19.144;2023-07-02T05:16:59;99362.25;;;23.01;60.42
77227;BME280;66234;47.642;19.144;2023-07-02T05:20:03;99368.91;;;23.31;59.71
77227;BME280;66234;47.642;19.144;2023-07-02T05:23:08;99371.13;;;23.29;59.26
77227;BME280;66234;47.642;19.144;2023-07-02T05:26:11;99368.47;;;23.68;57.89
77227;BME280;66234;47.642;19.144;2023-07-02T05:29:13;99378.00;;;23.79;57.70
77227;BME280;66234;47.642;19.144;2023-07-02T05:32:16;99377.94;;;23.70;58.78
77227;BME280;66234;47.642;19.144;2023-07-02T05:35:19;99371.31;;;23.54;59.49
77227;BME280;66234;47.642;19.144;2023-07-02T05:38:21;99377.69;;;23.50;59.41
77227;BME280;66234;47.642;19.144;2023-07-02T05:41:24;99377.44;;;23.38;59.56
77227;BME280;66234;47.642;19.144;2023-07-02T05:44:27;99384.19;;;23.18;59.20
77227;BME280;66234;47.642;19.144;2023-07-02T05:47:29;99380.09;;;23.07;59.63
77227;BME280;66234;47.642;19.144;2023-07-02T05:50:32;99383.13;;;23.06;59.47
77227;BME280;66234;47.642;19.144;2023-07-02T05:53:36;99375.81;;;22.93;59.35
77227;BME280;66234;47.642;19.144;2023-07-02T05:56:39;99395.34;;;23.08;59.53
77227;BME280;66234;47.642;19.144;2023-07-02T05:59:41;99396.25;;;23.04;58.89
77227;BME280;66234;47.642;19.144;2023-07-02T06:02:46;99397.47;;;23.11;58.61
77227;BME280;66234;47.642;19.144;2023-07-02T06:05:49;99398.06;;;23.08;58.81
77227;BME280;66234;47.642;19.144;2023-07-02T06:08:52;99398.88;;;23.09;58.84
77227;BME280;66234;47.642;19.144;2023-07-02T06:11:55;99395.03;;;23.10;59.89
77227;BME280;66234;47.642;19.144;2023-07-02T06:14:58;99398.72;;;23.27;59.47
77227;BME280;66234;47.642;19.144;2023-07-02T06:18:00;99395.22;;;23.13;60.08
77227;BME280;66234;47.642;19.144;2023-07-02T06:21:03;99396.53;;;23.16;60.59
77227;BME280;66234;47.642;19.144;2023-07-02T06:24:06;99393.69;;;23.43;59.62
77227;BME280;66234;47.642;19.144;2023-07-02T06:27:08;99395.75;;;23.37;59.64
77227;BME280;66234;47.642;19.144;2023-07-02T06:30:11;99395.69;;;23.51;58.74
77227;BME280;66234;47.642;19.144;2023-07-02T06:33:14;99403.91;;;23.59;58.99
77227;BME280;66234;47.642;19.144;2023-07-02T06:36:16;99405.03;;;23.58;59.47
77227;BME280;66234;47.642;19.144;2023-07-02T06:39:20;99397.72;;;23.45;58.96
77227;BME280;66234;47.642;19.144;2023-07-02T06:42:24;99401.53;;;23.36;58.38
77227;BME280;66234;47.642;19.144;2023-07-02T06:45:26;99408.41;;;23.64;59.03
77227;BME280;66234;47.642;19.144;2023-07-02T06:48:29;99402.50;;;23.62;59.05
77227;BME280;66234;47.642;19.144;2023-07-02T06:51:32;99410.41;;;23.72;58.32
77227;BME280;66234;47.642;19.144;2023-07-02T06:54:36;99420.38;;;23.98;57.62
77227;BME280;66234;47.642;19.144;2023-07-02T06:57:45;99418.66;;;24.11;54.75
77227;BME280;66234;47.642;19.144;2023-07-02T07:00:47;99412.28;;;24.24;54.63
77227;BME280;66234;47.642;19.144;2023-07-02T07:03:51;99410.41;;;24.50;54.48
77227;BME280;66234;47.642;19.144;2023-07-02T07:06:53;99413.22;;;24.76;52.13
77227;BME280;66234;47.642;19.144;2023-07-02T07:09:59;99426.28;;;25.04;51.47
77227;BME280;66234;47.642;19.144;2023-07-02T07:13:02;99428.50;;;24.94;50.96
77227;BME280;66234;47.642;19.144;2023-07-02T07:16:05;99423.38;;;25.09;50.96
77227;BME280;66234;47.642;19.144;2023-07-02T07:19:07;99433.38;;;25.39;51.08
77227;BME280;66234;47.642;19.144;2023-07-02T07:22:10;99425.78;;;25.45;49.03
77227;BME280;66234;47.642;19.144;2023-07-02T07:25:12;99431.28;;;25.36;48.95
77227;BME280;66234;47.642;19.144;2023-07-02T07:28:17;99418.38;;;25.54;47.98
77227;BME280;66234;47.642;19.144;2023-07-02T07:31:20;99418.97;;;25.76;47.65
77227;BME280;66234;47.642;19.144;2023-07-02T07:34:22;99425.13;;;25.56;43.96
77227;BME280;66234;47.642;19.144;2023-07-02T07:37:25;99434.00;;;25.53;43.29
77227;BME280;66234;47.642;19.144;2023-07-02T07:40:28;99433.84;;;25.58;44.08
77227;BME280;66234;47.642;19.144;2023-07-02T07:43:31;99436.38;;;25.72;42.89
77227;BME280;66234;47.642;19.144;2023-07-02T07:46:33;99434.41;;;25.81;42.99
77227;BME280;66234;47.642;19.144;2023-07-02T07:49:36;99439.25;;;25.84;43.59
77227;BME280;66234;47.642;19.144;2023-07-02T07:52:39;99443.38;;;26.07;44.59
77227;BME280;66234;47.642;19.144;2023-07-02T07:55:42;99448.31;;;26.22;43.95
77227;BME280;66234;47.642;19.144;2023-07-02T07:58:45;99447.81;;;26.66;41.30
77227;BME280;66234;47.642;19.144;2023-07-02T08:01:48;99427.03;;;27.06;40.44
77227;BME280;66234;47.642;19.144;2023-07-02T08:04:50;99431.69;;;27.06;41.87
77227;BME280;66234;47.642;19.144;2023-07-02T08:07:53;99441.03;;;26.93;40.29
77227;BME280;66234;47.642;19.144;2023-07-02T08:10:59;99444.66;;;26.76;40.45
77227;BME280;66234;47.642;19.144;2023-07-02T08:14:02;99442.47;;;27.11;39.42
77227;BME280;66234;47.642;19.144;2023-07-02T08:17:04;99452.66;;;27.10;39.84
77227;BME280;66234;47.642;19.144;2023-07-02T08:20:07;99459.44;;;26.55;42.92
77227;BME280;66234;47.642;19.144;2023-07-02T08:23:11;99471.03;;;26.31;43.91
77227;BME280;66234;47.642;19.144;2023-07-02T08:26:14;99465.81;;;26.01;44.96
77227;BME280;66234;47.642;19.144;2023-07-02T08:29:16;99473.56;;;25.73;46.85
77227;BME280;66234;47.642;19.144;2023-07-02T08:32:19;99476.53;;;25.51;47.95
77227;BME280;66234;47.642;19.144;2023-07-02T08:35:22;99479.38;;;25.71;48.19
77227;BME280;66234;47.642;19.144;2023-07-02T08:38:24;99475.69;;;25.59;46.25
77227;BME280;66234;47.642;19.144;2023-07-02T08:41:28;99486.19;;;25.57;48.70
77227;BME280;66234;47.642;19.144;2023-07-02T08:44:31;99486.31;;;25.69;49.10
77227;BME280;66234;47.642;19.144;2023-07-02T08:47:34;99488.09;;;25.73;48.82
77227;BME280;66234;47.642;19.144;2023-07-02T08:50:37;99488.56;;;25.75;49.69
77227;BME280;66234;47.642;19.144;2023-07-02T08:53:39;99483.50;;;25.95;45.80
77227;BME280;66234;47.642;19.144;2023-07-02T08:56:42;99499.69;;;25.53;47.04
77227;BME280;66234;47.642;19.144;2023-07-02T08:59:45;99494.34;;;25.82;46.72
77227;BME280;66234;47.642;19.144;2023-07-02T09:02:48;99505.44;;;25.95;45.44
77227;BME280;66234;47.642;19.144;2023-07-02T09:05:52;99501.25;;;25.97;44.19
77227;BME280;66234;47.642;19.144;2023-07-02T09:09:03;99501.16;;;25.68;44.79
77227;BME280;66234;47.642;19.144;2023-07-02T09:12:06;99504.03;;;25.54;45.09
77227;BME280;66234;47.642;19.144;2023-07-02T09:15:09;99510.97;;;25.52;45.45
77227;BME280;66234;47.642;19.144;2023-07-02T09:18:22;99504.03;;;25.80;45.06
77227;BME280;66234;47.642;19.144;2023-07-02T09:21:48;99508.03;;;25.91;45.68
77227;BME280;66234;47.642;19.144;2023-07-02T09:24:55;99500.09;;;26.24;45.93
77227;BME280;66234;47.642;19.144;2023-07-02T09:27:59;99497.13;;;26.37;45.25
77227;BME280;66234;47.642;19.144;2023-07-02T09:31:02;99509.03;;;26.41;46.03
77227;BME280;66234;47.642;19.144;2023-07-02T09:34:05;99493.19;;;26.09;45.81
77227;BME280;66234;47.642;19.144;2023-07-02T09:37:09;99505.25;;;26.25;46.52
77227;BME280;66234;47.642;19.144;2023-07-02T09:40:12;99494.00;;;26.47;46.20
77227;BME280;66234;47.642;19.144;2023-07-02T09:43:16;99502.47;;;26.63;44.65
77227;BME280;66234;47.642;19.144;2023-07-02T09:46:19;99499.97;;;26.49;43.59
77227;BME280;66234;47.642;19.144;2023-07-02T09:49:21;99481.66;;;26.70;43.81
77227;BME280;66234;47.642;19.144;2023-07-02T09:52:25;99500.41;;;26.68;43.92
77227;BME280;66234;47.642;19.144;2023-07-02T09:55:30;99488.56;;;26.76;43.04
77227;BME280;66234;47.642;19.144;2023-07-02T09:58:32;99491.19;;;26.93;41.59
77227;BME280;66234;47.642;19.144;2023-07-02T10:01:35;99496.66;;;26.73;41.33
77227;BME280;66234;47.642;19.144;2023-07-02T10:04:45;99493.16;;;27.13;40.78
77227;BME280;66234;47.642;19.144;2023-07-02T10:07:48;99505.34;;;27.04;42.80
77227;BME280;66234;47.642;19.144;2023-07-02T10:10:51;99514.38;;;26.75;44.12
77227;BME280;66234;47.642;19.144;2023-07-02T10:13:58;99500.06;;;27.19;43.56
77227;BME280;66234;47.642;19.144;2023-07-02T10:17:01;99497.91;;;27.33;43.58
77227;BME280;66234;47.642;19.144;2023-07-02T10:20:07;99501.22;;;27.39;42.92
77227;BME280;66234;47.642;19.144;2023-07-02T10:23:12;99500.97;;;27.03;42.75
77227;BME280;66234;47.642;19.144;2023-07-02T10:26:17;99502.34;;;27.17;41.71
77227;BME280;66234;47.642;19.144;2023-07-02T10:29:21;99492.94;;;27.18;41.08
77227;BME280;66234;47.642;19.144;2023-07-02T10:32:27;99496.97;;;27.00;42.54
77227;BME280;66234;47.642;19.144;2023-07-02T10:35:32;99499.41;;;27.22;42.76
77227;BME280;66234;47.642;19.144;2023-07-02T10:38:35;99494.47;;;27.07;42.02
77227;BME280;66234;47.642;19.144;2023-07-02T10:41:38;99498.56;;;27.01;43.04
77227;BME280;66234;47.642;19.144;2023-07-02T10:44:51;99500.53;;;27.01;43.19
77227;BME280;66234;47.642;19.144;2023-07-02T10:47:54;99493.91;;;27.22;41.92
77227;BME280;66234;47.642;19.144;2023-07-02T10:50:57;99498.03;;;27.70;40.47
77227;BME280;66234;47.642;19.144;2023-07-02T10:54:00;99483.56;;;27.28;40.56
77227;BME280;66234;47.642;19.144;2023-07-02T10:57:03;99485.75;;;27.88;39.75
77227;BME280;66234;47.642;19.144;2023-07-02T11:00:06;99479.72;;;27.94;39.98
77227;BME280;66234;47.642;19.144;2023-07-02T11:03:20;99480.34;;;27.79;41.37
77227;BME280;66234;47.642;19.144;2023-07-02T11:06:23;99480.41;;;27.91;41.52
77227;BME280;66234;47.642;19.144;2023-07-02T11:09:26;99477.66;;;28.03;41.39
77227;BME280;66234;47.642;19.144;2023-07-02T11:12:30;99489.72;;;27.78;41.35
77227;BME280;66234;47.642;19.144;2023-07-02T11:15:35;99476.44;;;27.80;41.68
77227;BME280;66234;47.642;19.144;2023-07-02T11:18:39;99482.25;;;27.99;42.22
77227;BME280;66234;47.642;19.144;2023-07-02T11:21:51;99471.19;;;27.75;40.59
77227;BME280;66234;47.642;19.144;2023-07-02T11:24:53;99484.94;;;28.08;40.38
77227;BME280;66234;47.642;19.144;2023-07-02T11:28:05;99468.00;;;28.78;39.59
77227;BME280;66234;47.642;19.144;2023-07-02T11:31:07;99477.19;;;28.58;39.01
77227;BME280;66234;47.642;19.144;2023-07-02T11:34:17;99467.56;;;28.52;38.87
77227;BME280;66234;47.642;19.144;2023-07-02T11:37:21;99471.66;;;28.46;38.41
77227;BME280;66234;47.642;19.144;2023-07-02T11:40:24;99483.72;;;28.53;38.96
77227;BME280;66234;47.642;19.144;2023-07-02T11:43:26;99469.94;;;28.41;38.73
77227;BME280;66234;47.642;19.144;2023-07-02T11:46:29;99492.31;;;28.88;37.39
77227;BME280;66234;47.642;19.144;2023-07-02T11:49:32;99477.09;;;29.30;37.47
77227;BME280;66234;47.642;19.144;2023-07-02T11:52:34;99480.41;;;28.72;37.83
77227;BME280;66234;47.642;19.144;2023-07-02T11:55:37;99474.53;;;29.10;37.74
77227;BME280;66234;47.642;19.144;2023-07-02T11:58:41;99479.13;;;28.81;38.11
77227;BME280;66234;47.642;19.144;2023-07-02T12:01:44;99466.28;;;29.10;37.87
77227;BME280;66234;47.642;19.144;2023-07-02T12:04:47;99467.03;;;30.05;35.72
77227;BME280;66234;47.642;19.144;2023-07-02T12:07:49;99462.06;;;30.26;36.23
77227;BME280;66234;47.642;19.144;2023-07-02T12:10:53;99457.19;;;30.66;35.69
77227;BME280;66234;47.642;19.144;2023-07-02T12:13:56;99456.84;;;30.36;35.44
77227;BME280;66234;47.642;19.144;2023-07-02T12:16:58;99463.97;;;31.99;33.00
77227;BME280;66234;47.642;19.144;2023-07-02T12:20:03;99472.31;;;30.57;35.41
77227;BME280;66234;47.642;19.144;2023-07-02T12:23:06;99462.00;;;31.04;34.04
77227;BME280;66234;47.642;19.144;2023-07-02T12:26:09;99471.56;;;29.97;36.30
77227;BME280;66234;47.642;19.144;2023-07-02T12:29:12;99468.41;;;30.42;35.32
77227;BME280;66234;47.642;19.144;2023-07-02T12:32:14;99477.75;;;30.53;33.88
77227;BME280;66234;47.642;19.144;2023-07-02T12:35:17;99455.84;;;31.48;32.74
77227;BME280;66234;47.642;19.144;2023-07-02T12:38:20;99459.09;;;30.97;33.84
77227;BME280;66234;47.642;19.144;2023-07-02T12:41:22;99459.16;;;29.76;36.63
77227;BME280;66234;47.642;19.144;2023-07-02T12:44:25;99453.56;;;30.97;34.33
77227;BME280;66234;47.642;19.144;2023-07-02T12:47:28;99445.59;;;31.87;32.82
77227;BME280;66234;47.642;19.144;2023-07-02T12:50:30;99460.16;;;31.84;32.62
77227;BME280;66234;47.642;19.144;2023-07-02T12:53:33;99473.22;;;31.87;32.46
77227;BME280;66234;47.642;19.144;2023-07-02T12:56:35;99465.91;;;32.88;30.86
77227;BME280;66234;47.642;19.144;2023-07-02T12:59:38;99459.25;;;32.22;32.05
77227;BME280;66234;47.642;19.144;2023-07-02T13:02:41;99468.59;;;30.49;35.14
77227;BME280;66234;47.642;19.144;2023-07-02T13:06:03;99458.31;;;30.18;35.72
77227;BME280;66234;47.642;19.144;2023-07-02T13:09:07;99452.72;;;31.50;33.45
77227;BME280;66234;47.642;19.144;2023-07-02T13:12:10;99450.63;;;31.62;32.95
77227;BME280;66234;47.642;19.144;2023-07-02T13:15:13;99469.56;;;32.25;32.61
77227;BME280;66234;47.642;19.144;2023-07-02T13:18:16;99462.84;;;31.80;30.61
77227;BME280;66234;47.642;19.144;2023-07-02T13:21:18;99467.66;;;31.83;30.92
77227;BME280;66234;47.642;19.144;2023-07-02T13:24:21;99453.66;;;31.96;31.08
77227;BME280;66234;47.642;19.144;2023-07-02T13:27:24;99454.16;;;31.06;31.51
77227;BME280;66234;47.642;19.144;2023-07-02T13:30:26;99462.31;;;31.94;30.38
77227;BME280;66234;47.642;19.144;2023-07-02T13:33:30;99450.81;;;32.86;29.20
77227;BME280;66234;47.642;19.144;2023-07-02T13:36:33;99456.78;;;33.43;28.74
77227;BME280;66234;47.642;19.144;2023-07-02T13:39:35;99468.28;;;32.64;29.27
77227;BME280;66234;47.642;19.144;2023-07-02T13:42:38;99469.88;;;33.17;28.54
77227;BME280;66234;47.642;19.144;2023-07-02T13:45:41;99460.00;;;31.96;30.22
77227;BME280;66234;47.642;19.144;2023-07-02T13:48:43;99473.75;;;31.92;30.28
77227;BME280;66234;47.642;19.144;2023-07-02T13:51:46;99456.03;;;32.87;28.94
77227;BME280;66234;47.642;19.144;2023-07-02T13:54:48;99449.81;;;33.57;28.59
77227;BME280;66234;47.642;19.144;2023-07-02T13:57:51;99454.88;;;33.84;28.15
77227;BME280;66234;47.642;19.144;2023-07-02T14:00:53;99450.19;;;33.55;28.29
77227;BME280;66234;47.642;19.144;2023-07-02T14:03:56;99455.91;;;30.79;32.81
77227;BME280;66234;47.642;19.144;2023-07-02T14:06:58;99464.47;;;32.49;30.57
77227;BME280;66234;47.642;19.144;2023-07-02T14:10:01;99461.91;;;33.12;29.87
77227;BME280;66234;47.642;19.144;2023-07-02T14:13:04;99460.59;;;34.38;27.18
77227;BME280;66234;47.642;19.144;2023-07-02T14:16:07;99460.91;;;34.77;26.77
77227;BME280;66234;47.642;19.144;2023-07-02T14:19:10;99465.31;;;32.76;29.88
77227;BME280;66234;47.642;19.144;2023-07-02T14:22:14;99463.72;;;33.93;28.37
77227;BME280;66234;47.642;19.144;2023-07-02T14:25:18;99462.84;;;33.23;29.32
77227;BME280;66234;47.642;19.144;2023-07-02T14:28:38;99464.88;;;31.64;31.79
77227;BME280;66234;47.642;19.144;2023-07-02T14:31:41;99474.09;;;32.10;31.38
77227;BME280;66234;47.642;19.144;2023-07-02T14:34:43;99465.78;;;30.80;33.40
77227;BME280;66234;47.642;19.144;2023-07-02T14:37:46;99466.47;;;30.93;33.69
77227;BME280;66234;47.642;19.144;2023-07-02T14:40:49;99477.00;;;32.88;30.63
77227;BME280;66234;47.642;19.144;2023-07-02T14:43:52;99465.47;;;33.75;29.39
77227;BME280;66234;47.642;19.144;2023-07-02T14:46:54;99470.22;;;34.11;28.26
77227;BME280;66234;47.642;19.144;2023-07-02T14:49:57;99486.28;;;34.75;27.85
77227;BME280;66234;47.642;19.144;2023-07-02T14:53:00;99470.53;;;33.66;29.15
77227;BME280;66234;47.642;19.144;2023-07-02T14:56:02;99486.91;;;34.15;28.26
77227;BME280;66234;47.642;19.144;2023-07-02T14:59:05;99470.69;;;33.47;29.31
77227;BME280;66234;47.642;19.144;2023-07-02T15:02:09;99467.28;;;33.57;29.07
77227;BME280;66234;47.642;19.144;2023-07-02T15:05:11;99478.19;;;34.13;27.86
77227;BME280;66234;47.642;19.144;2023-07-02T15:08:15;99473.22;;;34.83;27.28
77227;BME280;66234;47.642;19.144;2023-07-02T15:11:21;99475.72;;;33.38;29.00
77227;BME280;66234;47.642;19.144;2023-07-02T15:14:24;99480.00;;;33.65;28.84
77227;BME280;66234;47.642;19.144;2023-07-02T15:17:26;99477.69;;;34.04;27.56
77227;BME280;66234;47.642;19.144;2023-07-02T15:20:29;99468.56;;;35.66;25.70
77227;BME280;66234;47.642;19.144;2023-07-02T15:23:32;99485.25;;;34.07;27.49
77227;BME280;66234;47.642;19.144;2023-07-02T15:26:35;99498.34;;;33.73;28.76
77227;BME280;66234;47.642;19.144;2023-07-02T15:29:38;99477.53;;;34.73;27.45
77227;BME280;66234;47.642;19.144;2023-07-02T15:32:40;99472.03;;;33.93;27.68
77227;BME280;66234;47.642;19.144;2023-07-02T15:35:43;99484.97;;;34.59;27.07
77227;BME280;66234;47.642;19.144;2023-07-02T15:38:45;99475.09;;;35.23;25.83
77227;BME280;66234;47.642;19.144;2023-07-02T15:41:48;99482.94;;;35.07;24.75
77227;BME280;66234;47.642;19.144;2023-07-02T15:44:51;99494.06;;;34.56;25.01
77227;BME280;66234;47.642;19.144;2023-07-02T15:47:53;99490.16;;;34.60;24.62
77227;BME280;66234;47.642;19.144;2023-07-02T15:50:56;99484.19;;;33.85;25.81
77227;BME280;66234;47.642;19.144;2023-07-02T15:53:59;99500.31;;;34.46;25.49
77227;BME280;66234;47.642;19.144;2023-07-02T15:57:03;99494.97;;;34.27;25.45
77227;BME280;66234;47.642;19.144;2023-07-02T16:00:06;99496.00;;;34.52;24.86